MMLT

Loreto International Airport

Loreto, Mexico
TAF MMLT 181641Z 1818/1918 34014KT P6SM SCT260 FM190600 36016KT P6SM SKC
Issued Valid From Valid To
Jan-18 @ 16:41 UTC
(9 hours ago)
Jan-18 @ 18:00 UTC
(8 hours ago)
Jan-19 @ 18:00 UTC
(in 16 hours)
Jan-18 @ 18:00 to Jan-19 @ 06:00
TAF MMLT 181641Z 1818/1918 34014KT P6SM SCT260
Wind Visibility Clouds
340° at 14 knots Greater than 6 miles
  • Scattered at 26,000' AGL
From Jan-19 @ 06:00 to Jan-19 @ 18:00
FM190600 36016KT P6SM SKC
Wind Visibility Clouds
360° at 16 knots Greater than 6 miles
  • Clear skies
TAF MMLT 181641Z 1818/1918 34014KT P6SM SCT260 FM190600 36016KT P6SM SKC
Issued Jan-18 @ 16:41 UTC
(9 hours ago)
Valid From Jan-18 @ 18:00 UTC
(8 hours ago)
Valid To Jan-19 @ 18:00 UTC
(in 16 hours)
Jan-18 @ 18:00 - Jan-19 @ 06:00
Wind Visibility
340° at 14 knots Greater than 6 miles
Clouds
  • Scattered at 26,000' AGL
From Jan-19 @ 06:00 - Jan-19 @ 18:00
Wind Visibility
360° at 16 knots Greater than 6 miles
Clouds
  • Clear skies